Time;durP1;ratioP1;P1;durP2;ratioP2;P2;SDS_P1;SDS_P2;PMS_P1;PMS_P2;Temp;Humidity;BMP_temperature;BMP_pressure;BME280_temperature;BME280_humidity;BME280_pressure;Samples;Min_cycle;Max_cycle;Signal;HPM_P1;HPM_P2
2021/04/22 00:01:39;;;;;;;;;;;;;;;;;;5055893;28;19911;-62
2021/04/22 00:04:05;;;;;;;;;;;;;;;;;;5056102;28;20358;-62
2021/04/22 00:06:31;;;;;;;;;;;;;;;;;;5055482;28;19928;-63
2021/04/22 00:08:57;;;;;;;;;;;;;;;;;;5056619;28;19905;-63
2021/04/22 00:11:23;;;;;;;;;;;;;;;;;;5055502;28;19905;-64
2021/04/22 00:13:49;;;;;;;;;;;;;;;;;;5055310;28;19919;-61
2021/04/22 00:16:15;;;;;;;;;;;;;;;;;;5035249;28;19909;-61
2021/04/22 00:18:41;;;;;;;;;;;;;;;;;;5033972;28;19913;-61
2021/04/22 00:21:07;;;;;;;;;;;;;;;;;;5034149;28;19905;-61
2021/04/22 00:23:33;;;;;;;;;;;;;;;;;;5033797;28;19912;-61
2021/04/22 00:25:59;;;;;;;;;;;;;;;;;;5034120;28;19909;-62
2021/04/22 00:28:25;;;;;;;;;;;;;;;;;;5033677;28;19905;-59
2021/04/22 00:30:51;;;;;;;;;;;;;;;;;;5015766;28;20347;-62
2021/04/22 00:33:17;;;;;;;;;;;;;;;;;;5033524;28;20394;-60
2021/04/22 00:35:43;;;;;;;;;;;;;;;;;;5034019;28;20003;-58
2021/04/22 00:38:09;;;;;;;;;;;;;;;;;;5032910;28;20287;-62
2021/04/22 00:40:35;;;;;;;;;;;;;;;;;;5033610;28;19913;-62
2021/04/22 00:43:01;;;;;;;;;;;;;;;;;;5033533;28;19905;-60
2021/04/22 00:45:27;;;;;;;;;;;;;;;;;;5032982;28;19987;-59
2021/04/22 00:47:53;;;;;;;;;;;;;;;;;;5034140;28;20256;-62
2021/04/22 00:50:19;;;;;;;;;;;;;;;;;;5033919;28;19916;-62
2021/04/22 00:52:45;;;;;;;;;;;;;;;;;;5034139;28;19912;-61
2021/04/22 00:55:11;;;;;;;;;;;;;;;;;;5033927;28;19949;-61
2021/04/22 00:57:37;;;;;;;;;;;;;;;;;;5034681;28;19932;-63
2021/04/22 01:00:03;;;;;;;;;;;;;;;;;;5036373;28;20371;-62
2021/04/22 01:02:28;;;;;;;;;;;;;;;;;;5036721;28;19912;-64
2021/04/22 01:04:54;;;;;;;;;;;;;;;;;;5036005;28;20014;-63
2021/04/22 01:07:20;;;;;;;;;;;;;;;;;;5036615;28;19947;-55
2021/04/22 01:09:46;;;;;;;;;;;;;;;;;;5035929;28;19916;-63
2021/04/22 01:12:12;;;;;;;;;;;;;;;;;;5036407;28;19928;-62
2021/04/22 01:14:39;;;;;;;;;;;;;;;;;;5036519;28;19958;-64
2021/04/22 01:17:05;;;;;;;;;;;;;;;;;;5046441;28;19908;-60
2021/04/22 01:19:31;;;;;;;;;;;;;;;;;;5052907;28;19911;-61
2021/04/22 01:21:57;;;;;;;;;;;;;;;;;;5052993;28;20003;-62
2021/04/22 01:24:23;;;;;;;;;;;;;;;;;;5045393;28;19995;-61
2021/04/22 01:26:49;;;;;;;;;;;;;;;;;;5052844;28;19905;-60
2021/04/22 01:29:15;;;;;;;;;;;;;;;;;;5052647;28;20355;-54
2021/04/22 01:31:41;;;;;;;;;;;;;;;;;;5052502;28;19912;-61
2021/04/22 01:34:07;;;;;;;;;;;;;;;;;;5051723;28;19917;-61
2021/04/22 01:36:33;;;;;;;;;;;;;;;;;;5051810;28;19908;-61
2021/04/22 01:38:58;;;;;;;;;;;;;;;;;;5052983;28;19911;-60
2021/04/22 01:41:24;;;;;;;;;;;;;;;;;;5053485;28;19971;-61
2021/04/22 01:43:50;;;;;;;;;;;;;;;;;;5052380;28;19911;-57
2021/04/22 01:46:16;;;;;;;;;;;;;;;;;;5051974;28;19908;-59
2021/04/22 01:48:42;;;;;;;;;;;;;;;;;;5052494;28;20255;-58
2021/04/22 01:51:11;;;;;;;;;;;;;;;;;;5052267;28;19911;-57
2021/04/22 01:53:37;;;;;;;;;;;;;;;;;;5053061;28;19952;-60
2021/04/22 01:56:03;;;;;;;;;;;;;;;;;;5052731;28;19948;-61
2021/04/22 01:58:29;;;;;;;;;;;;;;;;;;5052468;28;19927;-61
2021/04/22 02:00:55;;;;;;;;;;;;;;;;;;5051775;28;19905;-60
2021/04/22 02:03:21;;;;;;;;;;;;;;;;;;5052149;28;19905;-57
2021/04/22 02:05:47;;;;;;;;;;;;;;;;;;5051874;28;20006;-61
2021/04/22 02:08:13;;;;;;;;;;;;;;;;;;5050840;28;20384;-60
2021/04/22 02:10:39;;;;;;;;;;;;;;;;;;5050966;28;20322;-53
2021/04/22 02:13:05;;;;;;;;;;;;;;;;;;5049016;28;20263;-58
2021/04/22 02:15:31;;;;;;;;;;;;;;;;;;5039327;28;20275;-62
2021/04/22 02:17:56;;;;;;;;;;;;;;;;;;5043372;28;19913;-60
2021/04/22 02:20:22;;;;;;;;;;;;;;;;;;5034560;28;20003;-61
2021/04/22 02:22:48;;;;;;;;;;;;;;;;;;5032285;28;19999;-61
2021/04/22 02:25:14;;;;;;;;;;;;;;;;;;5032479;28;20004;-58
2021/04/22 02:27:40;;;;;;;;;;;;;;;;;;5045316;28;20334;-61
2021/04/22 02:30:06;;;;;;;;;;;;;;;;;;5032121;28;19913;-61
2021/04/22 02:32:32;;;;;;;;;;;;;;;;;;5031975;28;20314;-62
2021/04/22 02:34:58;;;;;;;;;;;;;;;;;;5031923;28;19916;-61
2021/04/22 02:37:24;;;;;;;;;;;;;;;;;;5014043;28;19909;-61
2021/04/22 02:39:50;;;;;;;;;;;;;;;;;;5041175;28;19904;-58
2021/04/22 02:42:16;;;;;;;;;;;;;;;;;;5036845;28;19999;-61
2021/04/22 02:44:42;;;;;;;;;;;;;;;;;;5052393;28;19996;-59
2021/04/22 02:47:07;;;;;;;;;;;;;;;;;;5052162;28;19999;-57
2021/04/22 02:49:34;;;;;;;;;;;;;;;;;;5052421;28;20035;-59
2021/04/22 02:52:00;;;;;;;;;;;;;;;;;;5052416;28;20286;-62
2021/04/22 02:54:25;;;;;;;;;;;;;;;;;;5052262;28;19928;-62
2021/04/22 02:56:51;;;;;;;;;;;;;;;;;;5052799;28;19909;-61
2021/04/22 02:59:17;;;;;;;;;;;;;;;;;;5052644;28;19916;-53
2021/04/22 03:01:43;;;;;;;;;;;;;;;;;;5055831;28;20275;-59
2021/04/22 03:04:09;;;;;;;;;;;;;;;;;;5055487;28;19908;-61
2021/04/22 03:06:35;;;;;;;;;;;;;;;;;;5055854;28;19920;-61
2021/04/22 03:09:01;;;;;;;;;;;;;;;;;;5055774;28;19905;-59
2021/04/22 03:11:27;;;;;;;;;;;;;;;;;;5056017;28;19912;-60
2021/04/22 03:13:53;;;;;;;;;;;;;;;;;;5049114;28;19917;-54
2021/04/22 03:16:19;;;;;;;;;;;;;;;;;;5035189;28;19905;-57
2021/04/22 03:18:45;;;;;;;;;;;;;;;;;;5035904;28;19951;-57
2021/04/22 03:21:11;;;;;;;;;;;;;;;;;;5050094;28;19928;-60
2021/04/22 03:23:36;;;;;;;;;;;;;;;;;;5039381;28;19905;-61
2021/04/22 03:26:02;;;;;;;;;;;;;;;;;;5048367;28;19905;-59
2021/04/22 03:28:28;;;;;;;;;;;;;;;;;;5055214;28;19913;-58
2021/04/22 03:30:54;;;;;;;;;;;;;;;;;;5049077;28;19992;-60
2021/04/22 03:33:20;;;;;;;;;;;;;;;;;;5042654;28;20007;-57
2021/04/22 03:35:46;;;;;;;;;;;;;;;;;;5054707;28;20315;-58
2021/04/22 03:38:12;;;;;;;;;;;;;;;;;;5055335;28;20363;-61
2021/04/22 03:40:38;;;;;;;;;;;;;;;;;;5036657;28;19948;-60
2021/04/22 03:43:04;;;;;;;;;;;;;;;;;;5055252;28;19951;-59
2021/04/22 03:45:30;;;;;;;;;;;;;;;;;;5055059;28;19958;-60
2021/04/22 03:47:55;;;;;;;;;;;;;;;;;;5055588;28;19928;-61
2021/04/22 03:50:21;;;;;;;;;;;;;;;;;;5054958;28;20479;-61
2021/04/22 03:52:48;;;;;;;;;;;;;;;;;;5054823;28;19904;-59
2021/04/22 03:55:14;;;;;;;;;;;;;;;;;;5055247;28;20349;-61
2021/04/22 03:57:39;;;;;;;;;;;;;;;;;;5055050;28;19952;-60
2021/04/22 04:00:05;;;;;;;;;;;;;;;;;;5055008;28;20022;-60
2021/04/22 04:02:31;;;;;;;;;;;;;;;;;;5054588;28;19939;-60
2021/04/22 04:04:57;;;;;;;;;;;;;;;;;;5054392;28;19916;-60
2021/04/22 04:07:23;;;;;;;;;;;;;;;;;;5049099;28;19909;-60
2021/04/22 04:09:49;;;;;;;;;;;;;;;;;;5034151;28;19912;-61
2021/04/22 04:12:15;;;;;;;;;;;;;;;;;;5032893;28;19956;-59
2021/04/22 04:14:41;;;;;;;;;;;;;;;;;;5034383;28;19967;-61
2021/04/22 04:17:07;;;;;;;;;;;;;;;;;;5033891;28;19905;-60
2021/04/22 04:19:33;;;;;;;;;;;;;;;;;;5051905;28;19920;-61
2021/04/22 04:21:59;;;;;;;;;;;;;;;;;;5036221;28;20321;-62
2021/04/22 04:24:24;;;;;;;;;;;;;;;;;;5048822;28;19908;-61
2021/04/22 04:26:50;;;;;;;;;;;;;;;;;;5038087;28;19905;-61
2021/04/22 04:29:16;;;;;;;;;;;;;;;;;;5053640;28;19965;-61
2021/04/22 04:31:42;;;;;;;;;;;;;;;;;;5053672;28;19908;-62
2021/04/22 04:34:08;;;;;;;;;;;;;;;;;;5053697;28;19919;-60
2021/04/22 04:36:34;;;;;;;;;;;;;;;;;;5055703;28;19913;-62
2021/04/22 04:39:00;;;;;;;;;;;;;;;;;;5055056;28;19913;-62
2021/04/22 04:41:26;;;;;;;;;;;;;;;;;;5055932;28;20343;-62
2021/04/22 04:43:52;;;;;;;;;;;;;;;;;;5055043;28;19964;-63
2021/04/22 04:46:18;;;;;;;;;;;;;;;;;;5055709;28;19905;-60
2021/04/22 04:48:44;;;;;;;;;;;;;;;;;;5054365;28;20274;-60
2021/04/22 04:51:10;;;;;;;;;;;;;;;;;;5053775;28;20514;-61
2021/04/22 04:53:35;;;;;;;;;;;;;;;;;;5053987;28;20012;-60
2021/04/22 04:56:01;;;;;;;;;;;;;;;;;;5053657;28;19999;-62
2021/04/22 04:58:27;;;;;;;;;;;;;;;;;;5054143;28;19944;-60
2021/04/22 05:00:53;;;;;;;;;;;;;;;;;;5053594;28;19943;-61
2021/04/22 05:03:19;;;;;;;;;;;;;;;;;;5053499;28;20318;-61
2021/04/22 05:05:45;;;;;;;;;;;;;;;;;;5052940;28;20355;-62
2021/04/22 05:08:11;;;;;;;;;;;;;;;;;;5049135;28;19920;-61
2021/04/22 05:10:37;;;;;;;;;;;;;;;;;;5048034;28;19912;-61
2021/04/22 05:13:03;;;;;;;;;;;;;;;;;;5049327;28;19966;-62
2021/04/22 05:15:29;;;;;;;;;;;;;;;;;;5037281;28;19943;-61
2021/04/22 05:17:55;;;;;;;;;;;;;;;;;;5046621;28;19909;-56
2021/04/22 05:20:21;;;;;;;;;;;;;;;;;;5032618;28;19905;-61
2021/04/22 05:22:46;;;;;;;;;;;;;;;;;;5032389;28;19905;-61
2021/04/22 05:25:12;;;;;;;;;;;;;;;;;;5036140;28;20032;-59
2021/04/22 05:27:38;;;;;;;;;;;;;;;;;;5043439;28;20000;-62
2021/04/22 05:30:04;;;;;;;;;;;;;;;;;;5032635;28;19912;-58
2021/04/22 05:32:31;;;;;;;;;;;;;;;;;;5032167;28;19912;-60
2021/04/22 05:34:57;;;;;;;;;;;;;;;;;;5032831;28;19917;-61
2021/04/22 05:37:23;;;;;;;;;;;;;;;;;;5032421;28;20008;-60
2021/04/22 05:39:48;;;;;;;;;;;;;;;;;;5032709;28;19905;-61
2021/04/22 05:42:14;;;;;;;;;;;;;;;;;;5035400;28;19976;-61
2021/04/22 05:44:42;;;;;;;;;;;;;;;;;;5042953;28;19905;-61
2021/04/22 05:47:08;;;;;;;;;;;;;;;;;;5032351;28;19927;-60
2021/04/22 05:49:34;;;;;;;;;;;;;;;;;;5032169;28;20364;-61
2021/04/22 05:52:00;;;;;;;;;;;;;;;;;;5032373;28;19905;-61
2021/04/22 05:54:26;;;;;;;;;;;;;;;;;;5031708;28;19924;-61
2021/04/22 05:56:52;;;;;;;;;;;;;;;;;;5032768;28;20272;-59
2021/04/22 05:59:18;;;;;;;;;;;;;;;;;;5031978;28;19912;-64
2021/04/22 06:01:44;;;;;;;;;;;;;;;;;;5033691;28;19909;-61
2021/04/22 06:04:10;;;;;;;;;;;;;;;;;;5047782;28;19916;-62
2021/04/22 06:06:36;;;;;;;;;;;;;;;;;;5052677;28;19925;-61
2021/04/22 06:09:02;;;;;;;;;;;;;;;;;;5052702;28;19909;-62
2021/04/22 06:11:27;;;;;;;;;;;;;;;;;;5052893;28;19916;-64
2021/04/22 06:13:53;;;;;;;;;;;;;;;;;;5053207;28;19916;-59
2021/04/22 06:16:21;;;;;;;;;;;;;;;;;;5052365;28;19905;-61
2021/04/22 06:18:47;;;;;;;;;;;;;;;;;;5052687;28;19904;-62
2021/04/22 06:21:13;;;;;;;;;;;;;;;;;;5052487;28;19904;-60
2021/04/22 06:23:39;;;;;;;;;;;;;;;;;;5053027;28;19917;-60
2021/04/22 06:26:05;;;;;;;;;;;;;;;;;;5052442;28;19904;-60
2021/04/22 06:28:31;;;;;;;;;;;;;;;;;;5052918;28;19905;-60
2021/04/22 06:30:57;;;;;;;;;;;;;;;;;;5052373;28;19909;-61
2021/04/22 06:33:23;;;;;;;;;;;;;;;;;;5052643;28;19919;-59
2021/04/22 06:35:49;;;;;;;;;;;;;;;;;;5054759;28;19908;-61
2021/04/22 06:38:15;;;;;;;;;;;;;;;;;;5056170;28;19928;-61
2021/04/22 06:40:41;;;;;;;;;;;;;;;;;;5056532;28;20343;-62
2021/04/22 06:43:10;;;;;;;;;;;;;;;;;;5056516;28;19908;-60
2021/04/22 06:45:35;;;;;;;;;;;;;;;;;;5055159;28;19995;-60
2021/04/22 06:48:01;;;;;;;;;;;;;;;;;;5035263;28;20393;-59
2021/04/22 06:50:27;;;;;;;;;;;;;;;;;;5035746;28;20351;-61
2021/04/22 06:52:53;;;;;;;;;;;;;;;;;;5035554;28;19905;-58
2021/04/22 06:55:19;;;;;;;;;;;;;;;;;;5040875;28;19927;-61
2021/04/22 06:57:45;;;;;;;;;;;;;;;;;;5036076;28;19967;-59
2021/04/22 07:00:11;;;;;;;;;;;;;;;;;;5036039;28;19909;-60
2021/04/22 07:02:37;;;;;;;;;;;;;;;;;;5040458;28;19905;-66
2021/04/22 07:05:03;;;;;;;;;;;;;;;;;;5035530;28;19923;-60
2021/04/22 07:07:29;;;;;;;;;;;;;;;;;;5035261;28;19936;-60
2021/04/22 07:09:55;;;;;;;;;;;;;;;;;;5035232;28;19974;-57
2021/04/22 07:12:21;;;;;;;;;;;;;;;;;;5041435;28;19905;-62
2021/04/22 07:14:47;;;;;;;;;;;;;;;;;;5038699;28;20375;-65
2021/04/22 07:17:13;;;;;;;;;;;;;;;;;;5042989;28;20028;-64
2021/04/22 07:19:39;;;;;;;;;;;;;;;;;;5039635;28;19916;-62
2021/04/22 07:22:05;;;;;;;;;;;;;;;;;;5035489;28;19912;-62
2021/04/22 07:24:31;;;;;;;;;;;;;;;;;;5035177;28;20419;-63
2021/04/22 07:26:57;;;;;;;;;;;;;;;;;;5035282;28;19927;-63
2021/04/22 07:29:23;;;;;;;;;;;;;;;;;;5034968;28;19912;-59
2021/04/22 07:31:49;;;;;;;;;;;;;;;;;;5034922;28;19905;-63
2021/04/22 07:34:15;;;;;;;;;;;;;;;;;;5035207;28;19917;-63
2021/04/22 07:36:41;;;;;;;;;;;;;;;;;;5035533;28;20000;-62
2021/04/22 07:39:07;;;;;;;;;;;;;;;;;;5035197;28;19987;-61
2021/04/22 07:41:33;;;;;;;;;;;;;;;;;;5035511;28;20335;-65
2021/04/22 07:43:59;;;;;;;;;;;;;;;;;;5035656;28;20344;-62
2021/04/22 07:46:25;;;;;;;;;;;;;;;;;;5035237;28;19938;-64
2021/04/22 07:48:51;;;;;;;;;;;;;;;;;;5035479;28;19916;-63
2021/04/22 07:51:17;;;;;;;;;;;;;;;;;;5035140;28;19909;-59
2021/04/22 07:53:42;;;;;;;;;;;;;;;;;;5035243;28;20284;-63
2021/04/22 07:56:08;;;;;;;;;;;;;;;;;;5035073;28;20359;-62
2021/04/22 07:58:34;;;;;;;;;;;;;;;;;;5034900;28;19923;-62
2021/04/22 08:01:00;;;;;;;;;;;;;;;;;;5035127;28;19917;-63
2021/04/22 08:03:26;;;;;;;;;;;;;;;;;;5034722;28;19909;-63
2021/04/22 08:05:55;;;;;;;;;;;;;;;;;;5034881;28;19967;-63
2021/04/22 08:08:21;;;;;;;;;;;;;;;;;;5033562;28;20248;-62
2021/04/22 08:10:47;;;;;;;;;;;;;;;;;;5036173;28;19913;-66
2021/04/22 08:13:13;;;;;;;;;;;;;;;;;;5036625;28;19913;-69
2021/04/22 08:15:39;;;;;;;;;;;;;;;;;;5036929;28;20409;-67
2021/04/22 08:18:05;;;;;;;;;;;;;;;;;;5036887;28;19927;-65
2021/04/22 08:20:31;;;;;;;;;;;;;;;;;;5037020;28;19911;-66
2021/04/22 08:22:57;;;;;;;;;;;;;;;;;;5036532;28;19912;-64
2021/04/22 08:25:23;;;;;;;;;;;;;;;;;;5034854;28;19905;-64
2021/04/22 08:27:49;;;;;;;;;;;;;;;;;;5035797;28;19960;-63
2021/04/22 08:30:14;;;;;;;;;;;;;;;;;;5049959;28;20354;-64
2021/04/22 08:32:40;;;;;;;;;;;;;;;;;;5046396;28;19912;-65
2021/04/22 08:35:06;;;;;;;;;;;;;;;;;;5034383;28;20386;-58
2021/04/22 08:37:35;;;;;;;;;;;;;;;;;;5034934;28;19915;-63
2021/04/22 08:40:01;;;;;;;;;;;;;;;;;;5033391;28;20394;-62
2021/04/22 08:42:27;;;;;;;;;;;;;;;;;;5033870;28;19945;-61
2021/04/22 08:44:53;;;;;;;;;;;;;;;;;;5033541;28;19949;-63
2021/04/22 08:47:19;;;;;;;;;;;;;;;;;;5033491;28;19905;-62
2021/04/22 08:49:45;;;;;;;;;;;;;;;;;;5033486;28;19975;-63
2021/04/22 08:52:11;;;;;;;;;;;;;;;;;;5033428;28;20348;-64
2021/04/22 08:54:37;;;;;;;;;;;;;;;;;;5033235;28;19917;-56
2021/04/22 08:57:03;;;;;;;;;;;;;;;;;;5033128;28;19908;-60
2021/04/22 08:59:29;;;;;;;;;;;;;;;;;;5032990;28;19963;-64
2021/04/22 09:01:55;;;;;;;;;;;;;;;;;;5033424;28;19912;-65
2021/04/22 09:04:21;;;;;;;;;;;;;;;;;;5033414;28;19909;-63
2021/04/22 09:06:47;;;;;;;;;;;;;;;;;;5033289;28;19921;-62
2021/04/22 09:09:13;;;;;;;;;;;;;;;;;;5033322;28;19908;-63
2021/04/22 09:11:38;;;;;;;;;;;;;;;;;;5034052;28;19959;-63
2021/04/22 09:14:04;;;;;;;;;;;;;;;;;;5034654;28;19916;-62
2021/04/22 09:16:30;;;;;;;;;;;;;;;;;;5033451;28;20279;-64
2021/04/22 09:18:56;;;;;;;;;;;;;;;;;;5033809;28;20406;-63
2021/04/22 09:21:22;;;;;;;;;;;;;;;;;;5033591;28;20008;-62
2021/04/22 09:23:48;;;;;;;;;;;;;;;;;;5033059;28;19905;-59
2021/04/22 09:26:14;;;;;;;;;;;;;;;;;;5032942;28;19906;-60
2021/04/22 09:28:40;;;;;;;;;;;;;;;;;;5028389;28;19909;-62
2021/04/22 09:31:06;;;;;;;;;;;;;;;;;;5031621;28;19916;-62
2021/04/22 09:33:32;;;;;;;;;;;;;;;;;;5033941;28;19916;-62
2021/04/22 09:35:58;;;;;;;;;;;;;;;;;;5033326;28;19913;-62
2021/04/22 09:38:24;;;;;;;;;;;;;;;;;;5033229;28;19947;-62
2021/04/22 09:40:49;;;;;;;;;;;;;;;;;;5032825;28;20271;-62
2021/04/22 09:43:15;;;;;;;;;;;;;;;;;;5033099;28;19959;-62
2021/04/22 09:45:41;;;;;;;;;;;;;;;;;;5032894;28;19956;-63
2021/04/22 09:48:07;;;;;;;;;;;;;;;;;;5033379;28;19913;-59
2021/04/22 09:50:33;;;;;;;;;;;;;;;;;;5032846;28;19901;-60
2021/04/22 09:52:59;;;;;;;;;;;;;;;;;;5032890;28;19950;-62
2021/04/22 09:55:25;;;;;;;;;;;;;;;;;;5033222;28;20017;-60
2021/04/22 09:57:51;;;;;;;;;;;;;;;;;;5034488;28;20363;-61
2021/04/22 10:00:17;;;;;;;;;;;;;;;;;;5033664;28;19905;-59
2021/04/22 10:02:43;;;;;;;;;;;;;;;;;;5031323;28;19905;-58
2021/04/22 10:05:09;;;;;;;;;;;;;;;;;;5029815;28;19924;-59
2021/04/22 10:07:35;;;;;;;;;;;;;;;;;;5017725;28;19921;-64
2021/04/22 10:10:01;;;;;;;;;;;;;;;;;;5014896;28;20260;-59
2021/04/22 10:12:27;;;;;;;;;;;;;;;;;;5021278;28;19912;-59
2021/04/22 10:14:53;;;;;;;;;;;;;;;;;;5017340;28;19913;-61
2021/04/22 10:17:19;;;;;;;;;;;;;;;;;;5037554;28;19905;-59
2021/04/22 10:19:45;;;;;;;;;;;;;;;;;;5044734;28;19959;-59
2021/04/22 10:22:10;;;;;;;;;;;;;;;;;;5050907;28;19988;-59
2021/04/22 10:24:36;;;;;;;;;;;;;;;;;;5056405;28;20015;-61
2021/04/22 10:27:03;;;;;;;;;;;;;;;;;;5040262;28;19996;-60
2021/04/22 10:29:29;;;;;;;;;;;;;;;;;;5036480;28;19909;-64
2021/04/22 10:31:55;;;;;;;;;;;;;;;;;;5018554;28;19909;-58
2021/04/22 10:34:20;;;;;;;;;;;;;;;;;;5036191;28;19975;-57
2021/04/22 10:36:46;;;;;;;;;;;;;;;;;;5035929;28;20354;-59
2021/04/22 10:39:13;;;;;;;;;;;;;;;;;;5050706;28;19911;-61
2021/04/22 10:41:38;;;;;;;;;;;;;;;;;;5038490;28;19911;-59
2021/04/22 10:44:05;;;;;;;;;;;;;;;;;;5036763;28;20266;-59
2021/04/22 10:46:35;;;;;;;;;;;;;;;;;;5036624;28;19905;-61
2021/04/22 10:49:01;;;;;;;;;;;;;;;;;;5015656;28;20493;-60
2021/04/22 10:51:27;;;;;;;;;;;;;;;;;;5036290;28;19956;-60
2021/04/22 10:53:53;;;;;;;;;;;;;;;;;;5036223;28;19912;-60
2021/04/22 10:56:19;;;;;;;;;;;;;;;;;;5034094;28;19995;-61
2021/04/22 10:58:45;;;;;;;;;;;;;;;;;;5036020;28;20327;-57
2021/04/22 11:01:11;;;;;;;;;;;;;;;;;;5034011;28;19940;-62
2021/04/22 11:03:38;;;;;;;;;;;;;;;;;;5035929;28;19912;-63
2021/04/22 11:06:04;;;;;;;;;;;;;;;;;;5036125;28;19924;-60
2021/04/22 11:08:30;;;;;;;;;;;;;;;;;;5037928;28;19905;-59
2021/04/22 11:10:56;;;;;;;;;;;;;;;;;;5055492;28;19909;-60
2021/04/22 11:13:22;;;;;;;;;;;;;;;;;;5051699;28;19944;-60
2021/04/22 11:15:48;;;;;;;;;;;;;;;;;;5039986;28;20580;-60
2021/04/22 11:18:14;;;;;;;;;;;;;;;;;;5048812;28;19905;-57
2021/04/22 11:20:40;;;;;;;;;;;;;;;;;;5034349;28;20248;-59
2021/04/22 11:23:06;;;;;;;;;;;;;;;;;;5035339;28;19974;-63
2021/04/22 11:25:32;;;;;;;;;;;;;;;;;;5036599;28;19908;-60
2021/04/22 11:27:58;;;;;;;;;;;;;;;;;;5044795;28;19905;-59
2021/04/22 11:30:24;;;;;;;;;;;;;;;;;;5033158;28;19909;-60
2021/04/22 11:32:50;;;;;;;;;;;;;;;;;;5027744;28;19913;-60
2021/04/22 11:35:16;;;;;;;;;;;;;;;;;;5029427;28;19917;-61
2021/04/22 11:37:42;;;;;;;;;;;;;;;;;;5039120;28;19931;-62
2021/04/22 11:40:08;;;;;;;;;;;;;;;;;;5030999;28;19909;-62
2021/04/22 11:42:34;;;;;;;;;;;;;;;;;;5038297;28;19915;-62
2021/04/22 11:45:00;;;;;;;;;;;;;;;;;;5054967;28;19905;-63
2021/04/22 11:47:26;;;;;;;;;;;;;;;;;;5054904;28;19912;-65
2021/04/22 11:49:52;;;;;;;;;;;;;;;;;;5055244;28;19905;-62
2021/04/22 11:52:18;;;;;;;;;;;;;;;;;;5054753;28;19947;-61
2021/04/22 11:54:44;;;;;;;;;;;;;;;;;;5054823;28;19923;-62
2021/04/22 11:57:10;;;;;;;;;;;;;;;;;;5054633;28;19905;-63
2021/04/22 11:59:36;;;;;;;;;;;;;;;;;;5054426;28;19908;-64
2021/04/22 12:02:04;;;;;;;;;;;;;;;;;;5055079;28;19958;-63
2021/04/22 12:04:30;;;;;;;;;;;;;;;;;;5049575;28;19916;-64
2021/04/22 12:06:55;;;;;;;;;;;;;;;;;;5034591;28;20291;-61
2021/04/22 12:09:21;;;;;;;;;;;;;;;;;;5034560;28;20430;-60
2021/04/22 12:11:47;;;;;;;;;;;;;;;;;;5034873;28;19905;-63
2021/04/22 12:14:14;;;;;;;;;;;;;;;;;;5030695;28;19921;-61
2021/04/22 12:16:40;;;;;;;;;;;;;;;;;;5022011;28;19952;-61
2021/04/22 12:19:06;;;;;;;;;;;;;;;;;;5017257;28;19955;-62
2021/04/22 12:21:32;;;;;;;;;;;;;;;;;;5014104;28;20000;-61
2021/04/22 12:24:05;;;;;;;;;;;;;;;;;;5047637;28;19999;-59
2021/04/22 12:26:31;;;;;;;;;;;;;;;;;;5033539;28;19905;-60
2021/04/22 12:28:58;;;;;;;;;;;;;;;;;;5033682;28;19916;-59
2021/04/22 12:31:24;;;;;;;;;;;;;;;;;;5043895;28;19916;-60
2021/04/22 12:33:50;;;;;;;;;;;;;;;;;;5036601;28;20278;-61
2021/04/22 12:36:15;;;;;;;;;;;;;;;;;;5033247;28;19915;-57
2021/04/22 12:38:41;;;;;;;;;;;;;;;;;;5030417;28;19960;-60
2021/04/22 12:41:07;;;;;;;;;;;;;;;;;;5033147;28;20378;-60
2021/04/22 12:43:34;;;;;;;;;;;;;;;;;;5033659;28;20279;-61
2021/04/22 12:46:00;;;;;;;;;;;;;;;;;;5033206;28;19905;-60
2021/04/22 12:48:26;;;;;;;;;;;;;;;;;;5042779;28;19909;-61
2021/04/22 12:50:53;;;;;;;;;;;;;;;;;;5037752;28;20010;-62
2021/04/22 12:53:19;;;;;;;;;;;;;;;;;;5033709;28;19980;-61
2021/04/22 12:55:45;;;;;;;;;;;;;;;;;;5033368;28;19917;-63
2021/04/22 12:58:10;;;;;;;;;;;;;;;;;;5038364;28;19913;-60
2021/04/22 13:00:36;;;;;;;;;;;;;;;;;;5053291;28;19912;-61
2021/04/22 13:03:02;;;;;;;;;;;;;;;;;;5053275;28;19911;-62
2021/04/22 13:05:28;;;;;;;;;;;;;;;;;;5051143;28;19924;-61
2021/04/22 13:07:54;;;;;;;;;;;;;;;;;;5052774;28;19912;-62
2021/04/22 13:10:20;;;;;;;;;;;;;;;;;;5053084;28;19931;-62
2021/04/22 13:12:46;;;;;;;;;;;;;;;;;;5052951;28;20449;-62
2021/04/22 13:15:12;;;;;;;;;;;;;;;;;;5052557;28;20003;-62
2021/04/22 13:17:42;;;;;;;;;;;;;;;;;;5052802;28;19912;-60
2021/04/22 13:20:08;;;;;;;;;;;;;;;;;;5034561;28;19911;-62
2021/04/22 13:22:33;;;;;;;;;;;;;;;;;;5052721;28;19905;-61
2021/04/22 13:24:59;;;;;;;;;;;;;;;;;;5036724;28;19905;-58
2021/04/22 13:27:25;;;;;;;;;;;;;;;;;;5033200;28;19904;-63
2021/04/22 13:29:51;;;;;;;;;;;;;;;;;;5032050;28;19935;-58
2021/04/22 13:32:17;;;;;;;;;;;;;;;;;;5033265;28;20355;-63
2021/04/22 13:34:43;;;;;;;;;;;;;;;;;;5032511;28;19921;-60
2021/04/22 13:37:09;;;;;;;;;;;;;;;;;;5032653;28;20381;-58
2021/04/22 13:39:35;;;;;;;;;;;;;;;;;;5033092;28;19912;-59
2021/04/22 13:42:01;;;;;;;;;;;;;;;;;;5032997;28;19905;-59
2021/04/22 13:44:27;;;;;;;;;;;;;;;;;;5032876;28;19919;-56
2021/04/22 13:46:53;;;;;;;;;;;;;;;;;;5033119;28;19905;-61
2021/04/22 13:49:19;;;;;;;;;;;;;;;;;;5033132;28;19913;-61
2021/04/22 13:51:45;;;;;;;;;;;;;;;;;;5033309;28;19972;-73
2021/04/22 13:54:11;;;;;;;;;;;;;;;;;;5033620;28;20374;-72
2021/04/22 13:56:37;;;;;;;;;;;;;;;;;;5015722;28;20290;-62
2021/04/22 13:59:03;;;;;;;;;;;;;;;;;;5052075;28;19904;-68
2021/04/22 14:01:29;;;;;;;;;;;;;;;;;;5035754;28;19905;-71
2021/04/22 14:03:55;;;;;;;;;;;;;;;;;;5011888;28;19909;-63
2021/04/22 14:06:21;;;;;;;;;;;;;;;;;;5045604;28;20291;-63
2021/04/22 14:08:47;;;;;;;;;;;;;;;;;;5037871;28;19908;-62
2021/04/22 14:11:13;;;;;;;;;;;;;;;;;;5052648;28;19913;-59
2021/04/22 14:13:39;;;;;;;;;;;;;;;;;;5051405;28;19909;-62
2021/04/22 14:16:05;;;;;;;;;;;;;;;;;;5042594;28;19905;-61
2021/04/22 14:18:31;;;;;;;;;;;;;;;;;;5032158;28;19912;-58
2021/04/22 14:20:57;;;;;;;;;;;;;;;;;;5040023;28;19919;-59
2021/04/22 14:23:23;;;;;;;;;;;;;;;;;;5051847;28;19905;-58
2021/04/22 14:25:49;;;;;;;;;;;;;;;;;;5029853;28;19908;-60
2021/04/22 14:28:15;;;;;;;;;;;;;;;;;;5038625;28;20406;-65
2021/04/22 14:30:40;;;;;;;;;;;;;;;;;;5035995;28;20358;-68
2021/04/22 14:33:06;;;;;;;;;;;;;;;;;;5042701;28;19909;-64
2021/04/22 14:35:32;;;;;;;;;;;;;;;;;;5031954;28;20278;-61
2021/04/22 14:37:58;;;;;;;;;;;;;;;;;;5021723;28;21045;-63
2021/04/22 14:40:24;;;;;;;;;;;;;;;;;;5012131;28;19906;-61
2021/04/22 14:42:50;;;;;;;;;;;;;;;;;;5013490;28;19905;-72
2021/04/22 14:45:16;;;;;;;;;;;;;;;;;;5014941;28;20378;-60
2021/04/22 14:47:42;;;;;;;;;;;;;;;;;;5031668;28;19911;-61
2021/04/22 14:50:09;;;;;;;;;;;;;;;;;;5031118;28;19947;-63
2021/04/22 14:52:35;;;;;;;;;;;;;;;;;;5031463;28;20010;-69
2021/04/22 14:55:01;;;;;;;;;;;;;;;;;;5031069;28;19963;-64
2021/04/22 14:57:26;;;;;;;;;;;;;;;;;;5034224;28;19909;-61
2021/04/22 14:59:52;;;;;;;;;;;;;;;;;;5034585;28;20381;-65
2021/04/22 15:02:18;;;;;;;;;;;;;;;;;;5016365;28;20291;-67
2021/04/22 15:04:44;;;;;;;;;;;;;;;;;;5035080;28;19913;-68
2021/04/22 15:07:10;;;;;;;;;;;;;;;;;;5034395;28;20261;-64
2021/04/22 15:09:36;;;;;;;;;;;;;;;;;;5034991;28;20265;-66
2021/04/22 15:12:03;;;;;;;;;;;;;;;;;;5034753;28;19931;-64
2021/04/22 15:14:29;;;;;;;;;;;;;;;;;;5035973;28;19917;-64
2021/04/22 15:16:55;;;;;;;;;;;;;;;;;;5035681;28;19963;-66
2021/04/22 15:19:21;;;;;;;;;;;;;;;;;;5034754;28;19999;-67
2021/04/22 15:21:47;;;;;;;;;;;;;;;;;;5043371;28;20402;-62
2021/04/22 15:24:13;;;;;;;;;;;;;;;;;;5044986;28;19995;-63
2021/04/22 15:26:39;;;;;;;;;;;;;;;;;;5042876;28;19999;-73
2021/04/22 15:29:05;;;;;;;;;;;;;;;;;;5034798;28;19905;-68
2021/04/22 15:31:31;;;;;;;;;;;;;;;;;;5016395;28;20346;-76
2021/04/22 15:33:57;;;;;;;;;;;;;;;;;;5016584;28;20358;-71
2021/04/22 15:36:22;;;;;;;;;;;;;;;;;;5034641;28;19909;-63
2021/04/22 15:38:48;;;;;;;;;;;;;;;;;;5033613;28;19904;-63
2021/04/22 15:41:14;;;;;;;;;;;;;;;;;;5034832;28;19905;-62
2021/04/22 15:43:40;;;;;;;;;;;;;;;;;;5035151;28;20290;-62
2021/04/22 15:46:06;;;;;;;;;;;;;;;;;;5034832;28;19996;-68
2021/04/22 15:48:32;;;;;;;;;;;;;;;;;;5034003;28;19909;-65
2021/04/22 15:50:58;;;;;;;;;;;;;;;;;;5034097;28;20394;-63
2021/04/22 15:53:24;;;;;;;;;;;;;;;;;;5033330;28;20043;-64
2021/04/22 15:55:50;;;;;;;;;;;;;;;;;;5015683;28;20385;-62
2021/04/22 15:58:16;;;;;;;;;;;;;;;;;;5034126;28;19905;-61
2021/04/22 16:00:43;;;;;;;;;;;;;;;;;;5034114;28;20413;-62
2021/04/22 16:03:09;;;;;;;;;;;;;;;;;;5034332;28;19952;-60
2021/04/22 16:05:35;;;;;;;;;;;;;;;;;;5033976;28;20029;-63
2021/04/22 16:08:01;;;;;;;;;;;;;;;;;;5032998;28;19917;-61
2021/04/22 16:10:27;;;;;;;;;;;;;;;;;;5038088;28;19932;-61
2021/04/22 16:12:53;;;;;;;;;;;;;;;;;;5034482;28;19986;-64
2021/04/22 16:15:19;;;;;;;;;;;;;;;;;;5033361;28;19921;-61
2021/04/22 16:17:45;;;;;;;;;;;;;;;;;;5034317;28;19909;-61
2021/04/22 16:20:10;;;;;;;;;;;;;;;;;;5033075;28;19999;-61
2021/04/22 16:22:36;;;;;;;;;;;;;;;;;;5033608;28;19931;-60
2021/04/22 16:25:02;;;;;;;;;;;;;;;;;;5035499;28;19967;-61
2021/04/22 16:27:28;;;;;;;;;;;;;;;;;;5033160;28;19909;-60
2021/04/22 16:29:54;;;;;;;;;;;;;;;;;;5033895;28;19905;-62
2021/04/22 16:32:20;;;;;;;;;;;;;;;;;;5032281;28;19931;-66
2021/04/22 16:34:46;;;;;;;;;;;;;;;;;;5043957;28;19924;-64
2021/04/22 16:37:12;;;;;;;;;;;;;;;;;;5036541;28;20351;-62